KLGB/LGB METAR and TAF weather

Enter ICAO airport designator
Station Type Date Time Source
KLGB METAR 2022/06/27 07:53 UTC NOAA

KLGB 270753Z 19005KT 8SM OVC006 18/16 A3002 RMK AO2 SLP164 T01780156 403000161


Station Type Date Time Source
KLGB Decoded METAR 2022/06/27 07:53 UTC NOAA

LONG BEACH AIRPORT, CA, United States (KLGB) 33-49N 118-09W 10M
Jun 27, 2022 - 03:53 AM EDT / 2022.06.27 0753 UTC
Wind: from the S (190 degrees) at 6 MPH (5 KT):0
Visibility: 8 mile(s):0
Sky conditions: overcast
Temperature: 64.0 F (17.8 C)
Dew Point: 60.1 F (15.6 C)
Relative Humidity: 86%
Pressure (altimeter): 30.02 in. Hg (1016 hPa)
ob: KLGB 270753Z 19005KT 8SM OVC006 18/16 A3002 RMK AO2 SLP164 T01780156 403000161
cycle: 8

Station Type Date Time Source
KLGB TAF 2022/06/27 06:36 UTC NOAA

TAF KLGB 270533Z 2706/2806 13006KT P6SM SKC
FM270800 VRB03KT 5SM BR OVC008
FM271600 18006KT 5SM HZ SKC
FM271800 18008KT P6SM SKC
FM272300 30008KT P6SM SKC
FM280500 VRB03KT P6SM SKC

Example: see airport list